Time;durP1;ratioP1;P1;durP2;ratioP2;P2;SDS_P1;SDS_P2;PMS_P1;PMS_P2;Temp;Humidity;BMP_temperature;BMP_pressure;BME280_temperature;BME280_humidity;BME280_pressure;Samples;Min_cycle;Max_cycle;Signal;HPM_P1;HPM_P2
2022/07/12 00:00:37;;;;;;;3.40;3.10;;;;;;;20.10;62.81;96220.31;5062355;28;20213;-82
2022/07/12 00:03:04;;;;;;;3.35;3.15;;;;;;;20.08;62.71;96222.34;5054479;28;20248;-82
2022/07/12 00:05:30;;;;;;;3.08;2.88;;;;;;;20.10;62.70;96222.91;5069505;28;20584;-83
2022/07/12 00:07:58;;;;;;;3.50;3.20;;;;;;;20.14;62.45;96220.66;5055476;28;20201;-83
2022/07/12 00:10:24;;;;;;;3.00;2.80;;;;;;;20.11;62.87;96215.88;5064289;28;20204;-82
2022/07/12 00:12:51;;;;;;;2.97;2.78;;;;;;;20.08;63.13;96219.72;5053904;28;20229;-82
2022/07/12 00:15:17;;;;;;;2.70;2.50;;;;;;;20.05;63.60;96225.38;5068579;28;20248;-82
2022/07/12 00:17:44;;;;;;;2.90;2.70;;;;;;;19.98;63.37;96222.06;5054572;28;20205;-82
2022/07/12 00:20:11;;;;;;;3.10;2.90;;;;;;;19.88;63.96;96222.56;5055299;28;20197;-82
2022/07/12 00:22:38;;;;;;;3.95;2.95;;;;;;;19.74;65.23;96230.78;5053935;28;20611;-82
2022/07/12 00:25:07;;;;;;;2.90;2.65;;;;;;;19.74;64.65;96225.56;5056885;28;20235;-82
2022/07/12 00:27:33;;;;;;;3.20;3.00;;;;;;;19.76;65.03;96229.56;5035104;28;20670;-82
2022/07/12 00:29:59;;;;;;;2.90;2.70;;;;;;;19.81;64.42;96227.09;5055988;28;20220;-82
2022/07/12 00:32:26;;;;;;;3.10;2.78;;;;;;;19.80;64.76;96220.28;5052798;28;20279;-82
2022/07/12 00:34:52;;;;;;;6.72;3.15;;;;;;;19.76;64.35;96219.09;5068867;28;20312;-82
2022/07/12 00:37:20;;;;;;;3.65;3.00;;;;;;;19.73;64.55;96227.38;5055400;28;20665;-82
2022/07/12 00:39:46;;;;;;;4.80;3.42;;;;;;;19.72;64.85;96225.78;5067748;28;20216;-82
2022/07/12 00:42:14;;;;;;;3.20;2.95;;;;;;;19.76;64.27;96218.31;5072692;28;20614;-82
2022/07/12 00:44:40;;;;;;;3.33;3.03;;;;;;;19.73;64.74;96222.16;5058723;28;20221;-82
2022/07/12 00:47:07;;;;;;;3.10;2.90;;;;;;;19.66;65.50;96224.81;5070529;28;20201;-83
2022/07/12 00:49:33;;;;;;;3.20;2.90;;;;;;;19.56;66.43;96228.97;5059407;28;20266;-82
2022/07/12 00:52:00;;;;;;;3.00;2.80;;;;;;;19.58;65.53;96225.13;5053339;28;20209;-82
2022/07/12 00:54:27;;;;;;;3.80;2.90;;;;;;;19.65;65.43;96230.25;5052216;28;20225;-82
2022/07/12 00:56:54;;;;;;;5.53;2.95;;;;;;;19.68;65.49;96232.44;5068468;28;20203;-82
2022/07/12 00:59:22;;;;;;;3.15;2.85;;;;;;;19.66;65.55;96232.66;5061292;28;20198;-82
2022/07/12 01:01:48;;;;;;;4.03;3.60;;;;;;;19.58;65.96;96224.34;5052868;28;20267;-82
2022/07/12 01:04:18;;;;;;;4.07;3.63;;;;;;;19.53;66.31;96222.34;5063714;28;20228;-82
2022/07/12 01:06:44;;;;;;;3.90;3.60;;;;;;;19.56;66.27;96229.78;5060573;28;20202;-82
2022/07/12 01:09:11;;;;;;;3.60;3.30;;;;;;;19.52;66.73;96230.41;5064217;28;20215;-82
2022/07/12 01:11:38;;;;;;;2.80;2.60;;;;;;;19.51;66.29;96234.03;5073314;28;20213;-82
2022/07/12 01:14:05;;;;;;;3.28;2.97;;;;;;;19.49;66.61;96226.38;5063311;28;20237;-82
2022/07/12 01:16:34;;;;;;;3.30;3.00;;;;;;;19.46;66.86;96231.22;5054725;28;20201;-82
2022/07/12 01:19:01;;;;;;;3.50;3.20;;;;;;;19.44;66.67;96230.66;5061978;28;20197;-82
2022/07/12 01:21:32;;;;;;;4.93;2.95;;;;;;;19.41;66.99;96225.88;5072792;28;20204;-82
2022/07/12 01:24:01;;;;;;;3.20;2.90;;;;;;;19.38;67.53;96226.31;5072082;28;20236;-83
2022/07/12 01:26:28;;;;;;;3.05;2.85;;;;;;;19.38;66.97;96227.09;5060565;28;20245;-82
2022/07/12 01:28:57;;;;;;;3.50;2.60;;;;;;;19.25;68.08;96233.22;5061693;28;20205;-82
2022/07/12 01:31:23;;;;;;;3.05;2.50;;;;;;;19.25;67.51;96228.00;5072914;28;20205;-82
2022/07/12 01:33:50;;;;;;;3.05;2.85;;;;;;;19.24;67.67;96223.81;5064652;28;20229;-82
2022/07/12 01:36:17;;;;;;;3.53;2.90;;;;;;;19.23;68.21;96226.66;5063306;28;20197;-82
2022/07/12 01:38:43;;;;;;;4.30;2.88;;;;;;;19.19;68.43;96228.09;5071420;28;20193;-82
2022/07/12 01:41:11;;;;;;;3.10;2.80;;;;;;;19.17;68.70;96230.09;5072642;28;20204;-82
2022/07/12 01:43:37;;;;;;;2.92;2.70;;;;;;;19.14;68.47;96225.31;5067156;28;20233;-82
2022/07/12 01:46:04;;;;;;;2.88;2.67;;;;;;;19.11;68.80;96225.72;5061672;28;20200;-82
2022/07/12 01:48:30;;;;;;;3.25;2.85;;;;;;;19.12;68.40;96224.72;5068420;28;20224;-82
2022/07/12 01:50:57;;;;;;;2.80;2.60;;;;;;;19.06;68.43;96222.97;5052943;28;20201;-82
2022/07/12 01:53:23;;;;;;;3.17;2.88;;;;;;;18.97;69.57;96231.06;5054839;28;20232;-82
2022/07/12 01:55:50;;;;;;;3.50;2.63;;;;;;;18.90;69.28;96224.28;5065911;28;20213;-82
2022/07/12 01:58:18;;;;;;;2.58;2.38;;;;;;;18.88;69.38;96232.34;5054152;28;20197;-82
2022/07/12 02:00:50;;;;;;;2.83;2.53;;;;;;;18.90;69.47;96237.34;5052149;28;20232;-82
2022/07/12 02:03:17;;;;;;;3.00;2.70;;;;;;;18.87;69.47;96227.31;5053310;28;20241;-82
2022/07/12 02:05:43;;;;;;;2.65;2.45;;;;;;;18.91;68.80;96231.13;5066561;28;20654;-82
2022/07/12 02:08:10;;;;;;;2.70;2.50;;;;;;;18.89;68.86;96227.91;5053553;28;20205;-83
2022/07/12 02:10:36;;;;;;;2.70;2.50;;;;;;;18.88;69.30;96228.91;5071749;28;20254;-82
2022/07/12 02:13:04;;;;;;;2.50;2.30;;;;;;;18.85;69.64;96222.34;5049594;28;20228;-82
2022/07/12 02:15:32;;;;;;;3.83;2.70;;;;;;;18.85;69.88;96227.56;5068254;28;20209;-82
2022/07/12 02:17:58;;;;;;;3.70;2.85;;;;;;;18.83;69.85;96228.78;5052054;28;20735;-82
2022/07/12 02:20:25;;;;;;;4.57;2.63;;;;;;;18.82;69.77;96225.38;5052712;28;20630;-82
2022/07/12 02:22:51;;;;;;;2.78;2.40;;;;;;;18.87;69.24;96227.31;5051619;28;20233;-82
2022/07/12 02:25:18;;;;;;;3.15;2.85;;;;;;;18.88;69.00;96232.34;5069153;28;20193;-82
2022/07/12 02:27:44;;;;;;;3.60;2.58;;;;;;;18.85;69.07;96221.53;5072124;28;20211;-82
2022/07/12 02:30:12;;;;;;;3.65;2.67;;;;;;;18.72;69.58;96219.81;5069418;28;20777;-82
2022/07/12 02:32:39;;;;;;;2.90;2.70;;;;;;;18.67;69.92;96222.25;5071099;28;20231;-82
2022/07/12 02:35:06;;;;;;;2.60;2.40;;;;;;;18.67;69.85;96230.06;5055612;28;20275;-82
2022/07/12 02:37:33;;;;;;;3.55;2.60;;;;;;;18.70;69.60;96228.84;5072475;28;20197;-82
2022/07/12 02:42:40;;;;;;;3.15;2.80;;;;;;;18.57;70.69;96227.13;5050474;28;20232;-82
2022/07/12 02:45:07;;;;;;;2.88;2.67;;;;;;;18.52;70.38;96222.53;5067287;28;20274;-82
2022/07/12 02:47:37;;;;;;;2.80;2.60;;;;;;;18.50;70.06;96226.34;5052554;28;20205;-82
2022/07/12 02:50:06;;;;;;;3.17;2.60;;;;;;;18.46;70.13;96231.22;5067975;28;20216;-83
2022/07/12 02:52:33;;;;;;;5.85;2.72;;;;;;;18.48;70.31;96226.56;5058820;28;20220;-82
2022/07/12 02:54:59;;;;;;;3.15;2.60;;;;;;;18.42;70.61;96232.63;5051649;28;20225;-82
2022/07/12 02:57:25;;;;;;;2.58;2.38;;;;;;;18.19;71.32;96235.75;5055450;28;20193;-82
2022/07/12 02:59:52;;;;;;;2.50;2.30;;;;;;;18.19;71.46;96227.13;5066703;28;20262;-83
2022/07/12 03:02:18;;;;;;;2.83;2.63;;;;;;;18.14;71.69;96222.53;5061544;28;20239;-82
2022/07/12 03:04:45;;;;;;;2.65;2.45;;;;;;;18.16;71.29;96220.53;5052265;28;20225;-82
2022/07/12 03:07:13;;;;;;;2.60;2.40;;;;;;;18.19;70.96;96229.72;5059850;28;20243;-82
2022/07/12 03:09:39;;;;;;;2.80;2.60;;;;;;;18.13;71.67;96227.94;5058657;28;20224;-82
2022/07/12 03:12:07;;;;;;;3.60;2.97;;;;;;;18.16;71.56;96228.34;5051943;28;20193;-82
2022/07/12 03:14:33;;;;;;;3.40;2.78;;;;;;;18.21;71.11;96231.13;5051761;28;20642;-82
2022/07/12 03:16:59;;;;;;;3.47;2.97;;;;;;;18.15;71.42;96233.75;5054834;28;20197;-83
2022/07/12 03:19:26;;;;;;;3.40;3.10;;;;;;;18.06;71.76;96229.81;5065599;28;20262;-82
2022/07/12 03:21:52;;;;;;;3.58;3.28;;;;;;;18.06;71.52;96224.59;5067418;28;20605;-82
2022/07/12 03:24:20;;;;;;;3.40;3.10;;;;;;;18.06;71.92;96233.22;5054525;28;20236;-82
2022/07/12 03:26:46;;;;;;;3.35;3.05;;;;;;;17.95;72.41;96232.03;5061630;28;20193;-82
2022/07/12 03:29:13;;;;;;;3.50;3.20;;;;;;;18.00;72.07;96235.81;5066161;28;20198;-83
2022/07/12 03:31:39;;;;;;;6.32;3.97;;;;;;;17.95;71.83;96226.03;5060108;28;20197;-82
2022/07/12 03:34:06;;;;;;;3.45;3.15;;;;;;;17.92;72.34;96226.44;5074431;28;20247;-82
2022/07/12 03:36:32;;;;;;;3.75;3.45;;;;;;;17.87;72.55;96229.66;5071398;28;20221;-82
2022/07/12 03:38:58;;;;;;;3.58;3.28;;;;;;;17.83;73.00;96235.50;5057748;28;20201;-82
2022/07/12 03:41:26;;;;;;;3.95;3.60;;;;;;;17.90;72.51;96239.66;5074774;28;20221;-82
2022/07/12 03:43:53;;;;;;;3.97;3.30;;;;;;;17.92;72.37;96245.47;5055060;28;20233;-82
2022/07/12 03:46:19;;;;;;;3.55;3.15;;;;;;;17.85;72.68;96243.91;5074902;28;20201;-82
2022/07/12 03:48:45;;;;;;;3.60;3.25;;;;;;;17.81;72.75;96248.72;5069794;28;20204;-82
2022/07/12 03:51:12;;;;;;;3.50;3.22;;;;;;;17.82;72.91;96247.72;5055485;28;20664;-82
2022/07/12 03:53:38;;;;;;;4.18;3.45;;;;;;;17.78;73.29;96243.13;5070148;28;20240;-82
2022/07/12 03:56:05;;;;;;;4.15;3.47;;;;;;;17.73;73.51;96248.13;5072667;28;20762;-83
2022/07/12 03:58:33;;;;;;;4.20;3.42;;;;;;;17.71;73.83;96250.94;5057373;28;20228;-82
2022/07/12 04:00:59;;;;;;;3.83;3.35;;;;;;;17.82;73.77;96249.53;5068698;28;20200;-82
2022/07/12 04:03:26;;;;;;;3.55;3.25;;;;;;;17.85;72.89;96252.53;5071298;28;20696;-82
2022/07/12 04:05:52;;;;;;;6.80;3.67;;;;;;;17.92;72.83;96250.69;5054355;28;20206;-82
2022/07/12 04:08:19;;;;;;;4.15;3.85;;;;;;;18.00;72.39;96251.47;5060352;28;20280;-82
2022/07/12 04:10:45;;;;;;;4.43;3.70;;;;;;;18.02;72.46;96254.66;5070190;28;20197;-83
2022/07/12 04:13:11;;;;;;;4.50;3.58;;;;;;;18.03;72.33;96253.66;5060189;28;20241;-82
2022/07/12 04:15:39;;;;;;;3.95;3.65;;;;;;;18.02;72.72;96250.25;5072006;28;20232;-82
2022/07/12 04:18:06;;;;;;;5.55;3.78;;;;;;;18.05;72.28;96256.88;5054917;28;20273;-82
2022/07/12 04:20:32;;;;;;;4.30;3.90;;;;;;;18.10;72.17;96263.03;5065700;28;20600;-82
2022/07/12 04:22:59;;;;;;;4.22;3.92;;;;;;;18.14;71.67;96266.84;5055119;28;20233;-82
2022/07/12 04:25:25;;;;;;;3.80;3.50;;;;;;;18.14;71.89;96263.44;5059753;28;20292;-82
2022/07/12 04:27:55;;;;;;;4.13;3.80;;;;;;;18.18;71.64;96267.22;5057750;28;20229;-82
2022/07/12 04:30:21;;;;;;;4.13;3.75;;;;;;;18.20;71.51;96267.81;5056260;28;20804;-82
2022/07/12 04:32:49;;;;;;;5.30;3.83;;;;;;;18.18;71.92;96260.22;5072336;28;20220;-83
2022/07/12 04:35:16;;;;;;;4.30;3.97;;;;;;;18.24;71.42;96261.19;5072892;28;20964;-84
2022/07/12 04:37:42;;;;;;;4.00;3.67;;;;;;;18.24;71.89;96262.00;5054967;28;20201;-82
2022/07/12 04:40:10;;;;;;;6.65;3.83;;;;;;;18.25;71.32;96249.75;5035607;28;20205;-82
2022/07/12 04:42:36;;;;;;;4.00;3.70;;;;;;;18.27;71.49;96263.41;5054371;28;20639;-82
2022/07/12 04:45:03;;;;;;;4.47;3.63;;;;;;;18.32;71.32;96257.53;5062719;28;20197;-82
2022/07/12 04:47:30;;;;;;;4.53;3.90;;;;;;;18.38;70.84;96259.31;5050821;28;20213;-82
2022/07/12 04:49:57;;;;;;;4.43;4.03;;;;;;;18.48;70.77;96259.66;5051560;28;20827;-82
2022/07/12 04:52:24;;;;;;;4.13;3.83;;;;;;;18.53;70.66;96263.25;5049679;28;20198;-82
2022/07/12 04:54:50;;;;;;;4.07;3.78;;;;;;;18.55;70.32;96257.81;5053605;28;20213;-82
2022/07/12 04:57:17;;;;;;;5.75;3.92;;;;;;;18.55;70.74;96261.22;5052916;28;20729;-82
2022/07/12 04:59:43;;;;;;;4.05;3.65;;;;;;;18.63;70.51;96268.03;5053107;28;20209;-82
2022/07/12 05:02:09;;;;;;;4.90;4.07;;;;;;;18.67;70.61;96279.63;5053188;28;20304;-82
2022/07/12 05:04:38;;;;;;;4.72;4.18;;;;;;;18.69;70.50;96271.59;5052860;28;20229;-83
2022/07/12 05:07:06;;;;;;;4.25;3.88;;;;;;;18.79;70.17;96269.34;5053372;28;20224;-82
2022/07/12 05:09:33;;;;;;;4.97;4.32;;;;;;;18.87;70.22;96282.13;5053172;28;20201;-82
2022/07/12 05:11:59;;;;;;;4.30;3.88;;;;;;;18.92;70.27;96280.50;5052860;28;20684;-82
2022/07/12 05:14:26;;;;;;;6.10;3.85;;;;;;;18.90;69.91;96279.91;5052930;28;20237;-82
2022/07/12 05:16:52;;;;;;;4.50;4.05;;;;;;;18.89;70.50;96283.50;5052707;28;20224;-82
2022/07/12 05:19:19;;;;;;;5.55;3.63;;;;;;;18.92;70.28;96284.91;5053009;28;20197;-82
2022/07/12 05:21:45;;;;;;;4.13;3.80;;;;;;;19.05;69.50;96276.22;5052403;28;20205;-82
2022/07/12 05:24:13;;;;;;;5.18;4.28;;;;;;;19.14;69.55;96282.75;5053041;28;20233;-82
2022/07/12 05:26:40;;;;;;;6.22;5.15;;;;;;;19.17;69.64;96290.97;5052594;28;20190;-82
2022/07/12 05:29:06;;;;;;;4.57;4.10;;;;;;;19.09;70.65;96280.75;5052691;28;20832;-82
2022/07/12 05:31:33;;;;;;;5.30;4.15;;;;;;;19.20;70.09;96290.53;5051895;28;20212;-82
2022/07/12 05:33:59;;;;;;;3.83;3.53;;;;;;;19.26;69.21;96289.66;5050701;28;20241;-82
2022/07/12 05:36:26;;;;;;;8.32;7.53;;;;;;;19.28;69.36;96295.47;5053044;28;20362;-82
2022/07/12 05:38:52;;;;;;;6.32;5.70;;;;;;;19.37;68.81;96296.03;5052203;28;20568;-82
2022/07/12 05:41:20;;;;;;;5.38;4.07;;;;;;;19.48;68.33;96300.53;5052191;28;20201;-82
2022/07/12 05:43:46;;;;;;;4.18;3.78;;;;;;;19.43;68.43;96300.41;5052201;28;20237;-82
2022/07/12 05:46:13;;;;;;;3.50;3.20;;;;;;;19.49;68.50;96298.72;5053075;28;20677;-81
2022/07/12 05:48:39;;;;;;;3.78;3.42;;;;;;;19.41;68.95;96299.81;5053026;28;20209;-82
2022/07/12 05:53:50;;;;;;;3.60;3.30;;;;;;;19.57;68.76;96307.13;5032993;28;20236;-82
2022/07/12 05:56:16;;;;;;;3.72;3.20;;;;;;;19.56;68.65;96308.16;5032848;28;20319;-82
2022/07/12 05:58:44;;;;;;;3.47;3.17;;;;;;;19.54;68.79;96311.97;5032860;28;20202;-82
2022/07/12 06:01:10;;;;;;;3.72;2.85;;;;;;;19.52;68.75;96314.00;5033539;28;20831;-83
2022/07/12 06:03:37;;;;;;;3.20;2.78;;;;;;;19.58;68.54;96308.72;5033491;28;20240;-82
2022/07/12 06:06:04;;;;;;;3.00;2.65;;;;;;;19.72;67.82;96321.66;5033583;28;20198;-82
2022/07/12 06:08:30;;;;;;;3.30;3.10;;;;;;;19.76;67.54;96323.63;5033743;28;20260;-82
2022/07/12 06:10:57;;;;;;;4.25;3.08;;;;;;;19.69;68.08;96324.69;5033066;28;20256;-82
2022/07/12 06:13:24;;;;;;;2.58;2.38;;;;;;;19.84;67.18;96319.94;5032819;28;20238;-82
2022/07/12 06:15:52;;;;;;;2.70;2.50;;;;;;;19.94;66.88;96322.84;5033448;28;20612;-82
2022/07/12 06:18:18;;;;;;;2.20;2.00;;;;;;;19.99;66.00;96323.81;5034825;28;20206;-82
2022/07/12 06:20:45;;;;;;;3.00;1.85;;;;;;;20.16;65.99;96316.19;5052534;28;20256;-82
2022/07/12 06:23:12;;;;;;;2.20;2.00;;;;;;;20.21;65.12;96313.69;5052973;28;20663;-82
2022/07/12 06:25:39;;;;;;;3.10;2.28;;;;;;;20.17;64.59;96319.59;5053612;28;20680;-82
2022/07/12 06:28:05;;;;;;;3.88;2.10;;;;;;;20.21;64.57;96316.31;5052526;28;20209;-82
2022/07/12 06:30:32;;;;;;;1.90;1.80;;;;;;;20.17;64.53;96317.78;5051965;28;20608;-82
2022/07/12 06:33:00;;;;;;;1.65;1.55;;;;;;;20.16;64.14;96315.38;5052141;28;20295;-82
2022/07/12 06:35:27;;;;;;;1.55;1.45;;;;;;;20.29;63.90;96321.25;5053258;28;20216;-82
2022/07/12 06:37:54;;;;;;;3.00;1.50;;;;;;;20.32;64.08;96323.44;5052885;28;20242;-81
2022/07/12 06:40:20;;;;;;;2.38;1.88;;;;;;;20.30;63.13;96319.44;5051960;28;20202;-83
2022/07/12 06:42:46;;;;;;;3.10;2.10;;;;;;;20.29;63.64;96316.03;5051866;28;20279;-82
2022/07/12 06:45:13;;;;;;;2.42;1.70;;;;;;;20.38;63.17;96321.00;5052839;28;20590;-82
2022/07/12 06:47:39;;;;;;;1.70;1.52;;;;;;;20.39;63.70;96318.16;5051810;28;20278;-82
2022/07/12 06:50:08;;;;;;;1.50;1.40;;;;;;;20.51;63.07;96318.22;5052471;28;20229;-82
2022/07/12 06:52:35;;;;;;;1.50;1.40;;;;;;;20.47;62.29;96312.63;5051460;28;20267;-82
2022/07/12 06:55:02;;;;;;;1.50;1.40;;;;;;;20.59;62.68;96312.69;5052618;28;20198;-82
2022/07/12 06:57:29;;;;;;;1.58;1.48;;;;;;;20.66;61.87;96314.19;5052456;28;20228;-82
2022/07/12 06:59:56;;;;;;;2.60;1.58;;;;;;;20.69;61.45;96313.75;5052389;28;20941;-82
2022/07/12 07:02:22;;;;;;;1.98;1.88;;;;;;;20.74;61.28;96315.69;5050495;28;20197;-82
2022/07/12 07:04:49;;;;;;;1.60;1.50;;;;;;;20.74;61.48;96310.47;5053376;28;20233;-82
2022/07/12 07:07:17;;;;;;;2.33;1.58;;;;;;;20.81;60.79;96318.22;5052720;28;20288;-83
2022/07/12 07:09:43;;;;;;;2.08;1.70;;;;;;;20.85;61.06;96317.56;5052598;28;20205;-83
2022/07/12 07:12:10;;;;;;;2.45;1.65;;;;;;;20.87;60.95;96314.72;5050957;28;20685;-82
2022/07/12 07:14:37;;;;;;;1.95;1.48;;;;;;;20.86;61.00;96318.34;5053151;28;20307;-82
2022/07/12 07:17:04;;;;;;;2.33;1.30;;;;;;;20.93;61.23;96313.81;5052928;28;20299;-82
2022/07/12 07:19:31;;;;;;;2.00;1.50;;;;;;;20.93;61.15;96325.09;5053747;28;20201;-82
2022/07/12 07:21:58;;;;;;;1.60;1.50;;;;;;;20.99;59.97;96318.16;5050693;28;20676;-82
2022/07/12 07:24:26;;;;;;;1.67;1.48;;;;;;;21.03;60.31;96322.72;5051917;28;20770;-82
2022/07/12 07:26:53;;;;;;;1.70;1.60;;;;;;;21.13;60.21;96318.78;5037920;28;20508;-82
2022/07/12 07:32:04;;;;;;;1.45;1.35;;;;;;;21.15;59.31;96324.59;5031142;28;20810;-82
2022/07/12 07:34:31;;;;;;;1.83;1.50;;;;;;;21.18;58.70;96329.34;5032577;28;20710;-82
2022/07/12 07:36:57;;;;;;;1.10;1.10;;;;;;;21.22;57.96;96318.25;5032777;28;20229;-82
2022/07/12 07:39:25;;;;;;;1.40;1.30;;;;;;;21.35;57.92;96327.75;5033008;28;20203;-82
2022/07/12 07:41:51;;;;;;;1.20;1.10;;;;;;;21.45;57.93;96332.41;5031603;28;20216;-82
2022/07/12 07:44:18;;;;;;;3.10;1.50;;;;;;;21.56;57.42;96329.78;5032007;28;20240;-82
2022/07/12 07:46:44;;;;;;;1.42;1.20;;;;;;;21.57;56.33;96326.13;5032633;28;20209;-82
2022/07/12 07:49:11;;;;;;;1.83;1.50;;;;;;;21.63;56.28;96329.69;5032973;28;20206;-82
2022/07/12 07:51:37;;;;;;;1.30;1.20;;;;;;;21.64;56.08;96326.84;5035249;28;20209;-82
2022/07/12 07:54:03;;;;;;;2.78;1.50;;;;;;;21.73;56.66;96323.88;5051622;28;20709;-82
2022/07/12 07:56:31;;;;;;;1.42;1.33;;;;;;;21.86;55.67;96323.66;5052845;28;20233;-82
2022/07/12 07:58:58;;;;;;;1.50;1.30;;;;;;;22.01;55.57;96326.63;5052898;28;20208;-82
2022/07/12 08:01:42;;;;;;;1.50;1.40;;;;;;;22.02;54.12;96329.03;5052110;28;20205;-82
2022/07/12 08:04:09;;;;;;;1.40;1.30;;;;;;;22.01;54.35;96322.19;5054022;28;20256;-82
2022/07/12 08:06:35;;;;;;;3.25;1.50;;;;;;;22.11;54.50;96321.59;5056146;28;20220;-82
2022/07/12 08:09:01;;;;;;;1.50;1.20;;;;;;;22.15;54.46;96322.72;5055339;28;20608;-82
2022/07/12 08:11:28;;;;;;;1.60;1.38;;;;;;;22.29;54.43;96334.56;5055391;28;20742;-82
2022/07/12 08:13:56;;;;;;;1.40;1.30;;;;;;;22.43;53.93;96329.84;5054568;28;20232;-82
2022/07/12 08:16:22;;;;;;;1.30;1.20;;;;;;;22.56;54.69;96328.78;5055477;28;20220;-82
2022/07/12 08:18:49;;;;;;;2.10;1.20;;;;;;;22.73;53.27;96327.00;5054330;28;20198;-82
2022/07/12 08:21:15;;;;;;;1.40;1.30;;;;;;;22.77;53.71;96325.53;5054992;28;20212;-82
2022/07/12 08:23:42;;;;;;;1.20;1.10;;;;;;;22.69;53.58;96329.31;5054184;28;20336;-82
2022/07/12 08:26:08;;;;;;;1.20;1.10;;;;;;;22.77;53.53;96315.03;5047060;28;20198;-82
2022/07/12 08:28:34;;;;;;;1.73;1.30;;;;;;;22.70;53.54;96327.50;5034932;28;20214;-82
2022/07/12 08:31:02;;;;;;;1.60;1.50;;;;;;;22.86;53.12;96326.78;5034726;28;20210;-82
2022/07/12 08:33:29;;;;;;;3.80;1.58;;;;;;;23.09;52.59;96328.50;5034454;28;20634;-83
2022/07/12 08:35:55;;;;;;;3.85;1.30;;;;;;;23.31;51.88;96334.63;5034922;28;20264;-82
2022/07/12 08:38:22;;;;;;;1.30;1.20;;;;;;;23.39;51.59;96333.44;5034492;28;20352;-82
2022/07/12 08:40:48;;;;;;;1.05;1.05;;;;;;;23.47;51.57;96337.53;5075462;22;20639;-81
2022/07/12 08:43:15;;;;;;;3.00;1.20;;;;;;;23.33;51.36;96343.06;5073728;28;20281;-83
2022/07/12 08:45:41;;;;;;;1.20;1.10;;;;;;;23.34;50.90;96352.53;5073507;28;20201;-83
2022/07/12 08:48:09;;;;;;;1.23;1.10;;;;;;;23.45;50.48;96350.91;5073354;28;20204;-82
2022/07/12 08:50:36;;;;;;;1.05;1.00;;;;;;;23.35;50.60;96350.72;5073606;28;20221;-84
2022/07/12 08:53:03;;;;;;;1.13;1.02;;;;;;;23.27;50.78;96341.41;5072699;28;20232;-83
2022/07/12 08:55:30;;;;;;;1.15;1.10;;;;;;;23.36;50.05;96347.84;5072516;28;20690;-83
2022/07/12 08:57:59;;;;;;;1.60;1.33;;;;;;;23.42;49.85;96348.75;5072692;28;20231;-84
2022/07/12 09:00:26;;;;;;;1.35;1.20;;;;;;;23.46;49.89;96349.88;5072244;28;20228;-83
2022/07/12 09:02:58;;;;;;;1.50;1.38;;;;;;;23.53;49.14;96347.88;5072028;28;20220;-84
2022/07/12 09:05:28;;;;;;;1.40;1.30;;;;;;;23.71;49.34;96355.53;5073104;28;20212;-82
2022/07/12 09:08:03;;;;;;;1.67;1.20;;;;;;;23.73;49.11;96350.81;5073180;28;20227;-84
2022/07/12 09:10:30;;;;;;;1.38;1.27;;;;;;;23.61;49.80;96359.84;5072579;28;20626;-82
2022/07/12 09:12:56;;;;;;;2.00;1.00;;;;;;;23.79;49.68;96356.97;5072263;28;20224;-83
2022/07/12 09:15:24;;;;;;;1.10;1.00;;;;;;;23.71;49.40;96350.25;5072609;28;20258;-82
2022/07/12 09:18:03;;;;;;;1.10;1.10;;;;;;;23.69;48.14;96349.72;5072456;28;20266;-82
2022/07/12 09:20:33;;;;;;;1.60;1.40;;;;;;;23.77;49.22;96351.16;5072684;28;20221;-83
2022/07/12 09:23:01;;;;;;;1.27;1.05;;;;;;;23.62;48.53;96343.03;5072510;28;20232;-83
2022/07/12 09:25:27;;;;;;;1.20;1.20;;;;;;;23.42;49.62;96354.00;5072966;28;20197;-82
2022/07/12 09:27:56;;;;;;;1.70;1.10;;;;;;;23.33;49.07;96345.69;5072724;28;20651;-81
2022/07/12 09:30:23;;;;;;;1.50;1.40;;;;;;;23.26;48.35;96347.69;5072454;28;20225;-84
2022/07/12 09:38:26;;;;;;;1.20;1.20;;;;;;;23.24;50.01;96360.28;5072051;28;20773;-82
2022/07/12 09:40:53;;;;;;;4.65;1.50;;;;;;;23.17;48.62;96366.69;5070984;28;20319;-81
2022/07/12 09:43:20;;;;;;;1.40;1.30;;;;;;;23.12;49.71;96364.78;5071056;27;20224;-82
2022/07/12 09:45:48;;;;;;;1.63;1.10;;;;;;;23.08;49.58;96364.47;5071868;28;20344;-82
2022/07/12 09:48:15;;;;;;;1.40;1.30;;;;;;;23.15;49.82;96361.69;5071426;28;20235;-82
2022/07/12 09:50:47;;;;;;;1.85;1.30;;;;;;;23.28;48.86;96355.34;5071551;28;20220;-81
2022/07/12 09:53:20;;;;;;;1.23;1.08;;;;;;;23.32;48.48;96359.88;5072400;28;20266;-85
2022/07/12 09:55:50;;;;;;;1.20;1.10;;;;;;;23.34;48.94;96364.91;5072439;28;20232;-84
2022/07/12 09:58:23;;;;;;;1.52;1.30;;;;;;;23.30;48.68;96364.56;5072243;28;20581;-83
2022/07/12 10:00:52;;;;;;;1.58;1.40;;;;;;;23.31;49.04;96363.53;5071701;28;20225;-84
2022/07/12 10:03:22;;;;;;;1.60;1.30;;;;;;;23.51;49.16;96368.31;5071620;28;20350;-84
2022/07/12 10:05:51;;;;;;;1.23;1.20;;;;;;;23.54;49.68;96370.50;5072808;28;20200;-82
2022/07/12 10:08:18;;;;;;;1.35;1.10;;;;;;;23.60;49.12;96366.94;5071786;28;20239;-84
2022/07/12 10:10:45;;;;;;;1.70;1.40;;;;;;;23.52;48.62;96366.53;5071811;28;20227;-83
2022/07/12 10:13:14;;;;;;;1.30;1.20;;;;;;;23.67;48.76;96369.38;5071628;28;20236;-82
2022/07/12 10:15:43;;;;;;;1.30;1.20;;;;;;;23.96;47.76;96370.09;5072125;28;20226;-82
2022/07/12 10:18:16;;;;;;;3.88;1.67;;;;;;;24.56;47.38;96367.50;5071713;28;20263;-82
2022/07/12 10:20:43;;;;;;;1.88;1.27;;;;;;;24.99;46.60;96361.44;5071472;28;20228;-84
2022/07/12 10:23:35;;;;;;;1.45;1.35;;;;;;;25.00;45.52;96362.22;5071658;28;20221;-82
2022/07/12 10:26:02;;;;;;;1.38;1.20;;;;;;;24.67;45.39;96366.56;5067552;28;20231;-83
2022/07/12 10:28:57;;;;;;;1.95;1.60;;;;;;;24.35;45.89;96370.94;5071837;28;20243;-83
2022/07/12 10:31:25;;;;;;;1.73;1.40;;;;;;;24.22;46.93;96364.16;5065613;28;20232;-84
2022/07/12 10:34:00;;;;;;;1.35;1.25;;;;;;;24.09;46.64;96367.13;5071351;28;20793;-82
2022/07/12 10:36:27;;;;;;;1.20;1.10;;;;;;;24.06;46.54;96363.13;5072094;28;20207;-84
2022/07/12 10:39:13;;;;;;;1.25;1.10;;;;;;;23.98;46.84;96360.13;5071509;28;20286;-84
2022/07/12 10:41:42;;;;;;;1.20;1.10;;;;;;;23.89;45.95;96364.19;5070066;28;20294;-84
2022/07/12 10:44:08;;;;;;;2.25;1.20;;;;;;;23.95;46.15;96369.31;5071899;28;20235;-83
2022/07/12 10:46:37;;;;;;;2.22;1.10;;;;;;;23.87;47.21;96368.91;5072352;28;20196;-84
2022/07/12 10:49:25;;;;;;;1.15;1.10;;;;;;;23.88;46.44;96373.91;5072433;28;20200;-82
2022/07/12 10:52:26;;;;;;;1.35;1.25;;;;;;;24.58;45.45;96362.78;5062591;28;20221;-82
2022/07/12 10:55:19;;;;;;;2.85;0.95;;;;;;;24.46;44.21;96362.09;4989582;28;20241;-82
2022/07/12 10:57:49;;;;;;;0.80;0.80;;;;;;;24.42;44.77;96359.19;4989028;28;20258;-83
2022/07/12 11:00:16;;;;;;;0.95;0.95;;;;;;;24.42;44.60;96361.81;5038265;28;20244;-84
2022/07/12 11:02:43;;;;;;;1.17;1.08;;;;;;;24.99;43.04;96352.72;5070252;28;20224;-81
2022/07/12 11:05:10;;;;;;;0.90;0.90;;;;;;;25.53;42.37;96353.47;5071225;28;20209;-84
2022/07/12 11:07:37;;;;;;;2.03;0.93;;;;;;;25.78;41.44;96351.06;5070057;28;20200;-82
2022/07/12 11:10:05;;;;;;;1.10;1.00;;;;;;;25.80;41.55;96348.94;5071171;28;20842;-82
2022/07/12 11:12:34;;;;;;;2.08;1.30;;;;;;;25.39;42.34;96355.75;5070714;28;20277;-82
2022/07/12 11:15:01;;;;;;;1.05;1.00;;;;;;;25.06;42.77;96355.94;5075037;28;20205;-80
2022/07/12 11:17:28;;;;;;;0.90;0.90;;;;;;;24.96;42.92;96356.66;5070202;28;20220;-83
2022/07/12 11:20:05;;;;;;;2.05;0.90;;;;;;;24.72;43.11;96364.00;5071387;28;20200;-82
2022/07/12 11:22:32;;;;;;;0.93;0.93;;;;;;;24.57;43.45;96360.41;5070608;28;20572;-82
2022/07/12 11:24:59;;;;;;;0.90;0.90;;;;;;;24.56;43.63;96356.19;5071757;28;20200;-85
2022/07/12 11:27:26;;;;;;;1.75;1.13;;;;;;;25.05;43.45;96355.16;5071466;28;20240;-83
2022/07/12 11:30:01;;;;;;;2.33;1.00;;;;;;;25.53;41.54;96355.31;5071232;28;20204;-84
2022/07/12 11:32:39;;;;;;;1.13;1.10;;;;;;;25.83;40.18;96349.47;5070099;27;20242;-80
2022/07/12 11:35:18;;;;;;;1.00;1.00;;;;;;;25.17;40.69;96344.47;5070098;28;20660;-84
2022/07/12 11:37:52;;;;;;;1.02;1.00;;;;;;;25.25;40.18;96345.84;5072723;28;20220;-84
2022/07/12 11:40:23;;;;;;;1.23;1.08;;;;;;;25.31;40.95;96348.28;5073936;28;20240;-82
2022/07/12 11:42:58;;;;;;;1.08;1.00;;;;;;;25.25;40.79;96338.72;5073875;27;20250;-82
2022/07/12 11:45:27;;;;;;;1.15;0.98;;;;;;;25.43;41.11;96345.47;5074546;28;20640;-83
2022/07/12 11:47:53;;;;;;;0.98;0.98;;;;;;;25.83;40.79;96345.00;5074798;28;20197;-83
2022/07/12 11:50:20;;;;;;;1.00;1.00;;;;;;;26.14;40.17;96340.72;5074154;28;20226;-83